Time;durP1;ratioP1;P1;durP2;ratioP2;P2;SDS_P1;SDS_P2;PMS_P1;PMS_P2;Temp;Humidity;BMP_temperature;BMP_pressure;BME280_temperature;BME280_humidity;BME280_pressure;Samples;Min_cycle;Max_cycle;Signal;HPM_P1;HPM_P2
2023/10/18 00:01:18;;;;;;;6.07;5.57;;;9.70;65.70;8.10;96160.00;;;;4992720;28;20622;-83
2023/10/18 00:03:45;;;;;;;6.33;5.60;;;9.70;65.80;8.10;96160.00;;;;4994605;28;20255;-83
2023/10/18 00:06:15;;;;;;;6.37;5.27;;;9.70;65.80;8.10;96166.00;;;;4990198;28;20293;-83
2023/10/18 00:08:44;;;;;;;5.93;5.20;;;9.70;65.90;8.10;96157.00;;;;4991367;28;20206;-83
2023/10/18 00:11:12;;;;;;;6.07;5.47;;;9.70;66.00;8.10;96162.00;;;;4987262;28;20549;-83
2023/10/18 00:13:40;;;;;;;5.47;4.97;;;9.70;66.10;8.10;96155.00;;;;4995135;28;20229;-83
2023/10/18 00:16:08;;;;;;;6.03;5.43;;;9.70;66.10;8.10;96152.00;;;;4999967;28;20206;-83
2023/10/18 00:18:36;;;;;;;6.50;5.50;;;9.70;66.20;8.10;96147.00;;;;4993955;28;20292;-83
2023/10/18 00:21:07;;;;;;;7.20;6.50;;;9.70;66.30;8.10;96146.00;;;;4999023;28;21040;-84
2023/10/18 00:23:34;;;;;;;6.73;5.37;;;9.70;66.30;8.20;96147.00;;;;5008658;28;20253;-83
2023/10/18 00:26:05;;;;;;;6.60;6.00;;;9.70;66.30;8.20;96145.00;;;;4998625;28;20257;-83
2023/10/18 00:28:36;;;;;;;5.93;5.43;;;9.70;66.50;8.20;96148.00;;;;5006893;28;20218;-83
2023/10/18 00:31:14;;;;;;;7.20;6.40;;;9.70;66.50;8.20;96148.00;;;;4996793;28;20199;-83
2023/10/18 00:33:41;;;;;;;6.17;5.67;;;9.80;66.70;8.20;96142.00;;;;4997819;28;20218;-83
2023/10/18 00:36:11;;;;;;;6.43;5.43;;;9.70;66.60;8.20;96142.00;;;;5010276;28;20667;-84
2023/10/18 00:38:40;;;;;;;6.50;5.90;;;9.70;66.50;8.20;96136.00;;;;5002190;28;20703;-81
2023/10/18 00:41:09;;;;;;;6.60;5.93;;;9.80;66.60;8.20;96136.00;;;;5000563;28;20198;-81
2023/10/18 00:43:38;;;;;;;6.17;5.57;;;9.80;66.60;8.20;96138.00;;;;4999976;28;20637;-81
2023/10/18 00:46:07;;;;;;;6.20;5.60;;;9.80;66.60;8.20;96134.00;;;;5000611;28;20279;-81
2023/10/18 00:48:35;;;;;;;6.03;5.43;;;9.80;66.60;8.20;96129.00;;;;4998051;28;20198;-81
2023/10/18 00:51:03;;;;;;;6.47;5.87;;;9.80;66.50;8.20;96131.00;;;;5000682;28;20203;-81
2023/10/18 00:53:31;;;;;;;7.37;6.50;;;9.80;66.50;8.30;96127.00;;;;5000632;28;20217;-81
2023/10/18 00:56:00;;;;;;;6.73;6.03;;;9.80;66.40;8.20;96120.00;;;;4997754;28;20205;-81
2023/10/18 00:58:29;;;;;;;6.80;5.60;;;9.80;66.40;8.20;96112.00;;;;5003835;28;20226;-81
2023/10/18 01:00:59;;;;;;;6.50;5.77;;;9.80;66.50;8.20;96107.00;;;;5004495;28;20222;-82
2023/10/18 01:03:30;;;;;;;7.50;6.43;;;9.80;66.50;8.20;96101.00;;;;5005897;28;20273;-81
2023/10/18 01:06:00;;;;;;;7.30;6.60;;;9.80;66.50;8.20;96092.00;;;;4997332;28;20213;-81
2023/10/18 01:08:30;;;;;;;6.90;6.17;;;9.80;66.50;8.30;96100.00;;;;5003189;28;20198;-80
2023/10/18 01:11:03;;;;;;;6.70;6.10;;;9.80;66.60;8.30;96094.00;;;;5007173;28;20206;-81
2023/10/18 01:13:31;;;;;;;6.43;5.83;;;9.90;66.70;8.30;96092.00;;;;4999125;28;20222;-81
2023/10/18 01:16:06;;;;;;;6.40;5.80;;;9.80;66.60;8.30;96095.00;;;;5007497;28;20206;-81
2023/10/18 01:18:33;;;;;;;6.07;5.53;;;9.80;66.60;8.30;96090.00;;;;5007669;28;20236;-82
2023/10/18 01:21:13;;;;;;;7.77;5.93;;;9.80;66.40;8.30;96098.00;;;;5000240;28;20664;-82
2023/10/18 01:23:42;;;;;;;7.23;5.93;;;9.90;66.40;8.30;96091.00;;;;4994817;28;20218;-82
2023/10/18 01:26:13;;;;;;;6.90;6.27;;;9.90;66.30;8.20;96082.00;;;;5000773;28;20199;-81
2023/10/18 01:28:41;;;;;;;6.77;6.10;;;9.90;66.20;8.20;96087.00;;;;5000077;28;20209;-81
2023/10/18 01:31:09;;;;;;;7.10;6.47;;;9.80;66.10;8.20;96088.00;;;;5000498;28;20637;-81
2023/10/18 01:33:42;;;;;;;6.43;5.83;;;9.80;66.00;8.20;96079.00;;;;5002272;28;20646;-80
2023/10/18 01:36:12;;;;;;;6.10;5.60;;;9.80;65.90;8.20;96078.00;;;;4999980;28;20257;-81
2023/10/18 01:38:42;;;;;;;6.20;5.60;;;9.80;65.80;8.20;96069.00;;;;4994562;28;20272;-81
2023/10/18 01:41:13;;;;;;;7.50;6.63;;;9.80;65.80;8.10;96076.00;;;;4994708;28;20194;-81
2023/10/18 01:43:43;;;;;;;6.80;6.10;;;9.70;65.70;8.10;96068.00;;;;4993920;28;20227;-81
2023/10/18 01:46:13;;;;;;;6.57;5.63;;;9.70;65.70;8.10;96075.00;;;;4989175;28;20234;-81
2023/10/18 01:48:41;;;;;;;6.10;5.53;;;9.70;65.70;8.10;96072.00;;;;5005364;28;20230;-84
2023/10/18 01:51:12;;;;;;;5.70;5.20;;;9.70;65.60;8.10;96074.00;;;;5003574;28;20233;-84
2023/10/18 01:53:42;;;;;;;6.23;5.63;;;9.70;66.40;8.00;96073.00;;;;5000854;28;20248;-84
2023/10/18 01:56:10;;;;;;;5.60;5.10;;;9.70;65.60;8.00;96068.00;;;;5008951;28;20202;-84
2023/10/18 01:58:38;;;;;;;8.90;6.37;;;9.60;65.60;7.90;96071.00;;;;4996507;28;20275;-84
2023/10/18 02:01:08;;;;;;;6.47;5.80;;;9.60;65.60;7.90;96065.00;;;;4997188;28;20226;-83
2023/10/18 02:03:36;;;;;;;6.50;5.83;;;9.60;65.60;7.90;96046.00;;;;5006349;28;20229;-84
2023/10/18 02:06:06;;;;;;;6.93;6.33;;;9.50;65.50;7.90;96052.00;;;;5007797;28;20567;-83
2023/10/18 02:08:34;;;;;;;7.27;6.47;;;9.50;65.50;7.90;96054.00;;;;5001945;28;20288;-84
2023/10/18 02:11:03;;;;;;;6.47;5.87;;;9.50;65.50;7.80;96054.00;;;;4996963;28;20213;-83
2023/10/18 02:13:32;;;;;;;5.90;5.40;;;9.50;65.50;7.80;96053.00;;;;5004448;28;20218;-84
2023/10/18 02:15:59;;;;;;;5.20;4.70;;;9.50;65.60;7.80;96048.00;;;;4999555;28;20226;-83
2023/10/18 02:18:27;;;;;;;6.70;6.10;;;9.40;65.60;7.80;96048.00;;;;5005192;28;20287;-83
2023/10/18 02:20:54;;;;;;;6.57;5.97;;;9.40;65.60;7.70;96043.00;;;;4994440;28;20223;-83
2023/10/18 02:23:22;;;;;;;6.30;5.77;;;9.40;65.50;7.70;96047.00;;;;4999261;28;20256;-84
2023/10/18 02:25:50;;;;;;;6.43;5.73;;;9.40;65.50;7.70;96032.00;;;;5000194;28;20300;-84
2023/10/18 02:28:25;;;;;;;7.27;6.57;;;9.40;65.50;7.70;96032.00;;;;5003889;28;20685;-84
2023/10/18 02:30:56;;;;;;;6.17;5.57;;;9.30;65.50;7.70;96033.00;;;;4994296;28;20194;-83
2023/10/18 02:33:36;;;;;;;5.83;5.33;;;9.30;65.50;7.60;96032.00;;;;4993702;28;20273;-84
2023/10/18 02:36:10;;;;;;;6.37;5.77;;;9.30;65.50;7.60;96029.00;;;;4999166;28;20257;-83
2023/10/18 02:38:40;;;;;;;7.03;6.33;;;9.30;65.50;7.60;96020.00;;;;4993724;28;20202;-83
2023/10/18 02:41:17;;;;;;;6.50;5.70;;;9.30;65.60;7.60;96022.00;;;;4990639;28;20208;-83
2023/10/18 02:43:47;;;;;;;5.53;4.67;;;9.20;65.70;7.50;96021.00;;;;4996340;28;20314;-83
2023/10/18 02:46:16;;;;;;;6.47;5.87;;;9.20;65.60;7.50;96026.00;;;;4998839;28;20265;-83
2023/10/18 02:48:44;;;;;;;7.00;6.40;;;9.20;65.60;7.50;96022.00;;;;4999391;28;20202;-84
2023/10/18 02:51:13;;;;;;;6.17;5.60;;;9.10;65.50;7.50;96020.00;;;;4999204;28;20203;-83
2023/10/18 02:53:41;;;;;;;5.77;5.23;;;9.10;65.60;7.40;96014.00;;;;5004438;28;20229;-83
2023/10/18 02:56:12;;;;;;;6.67;6.00;;;9.10;65.60;7.40;96011.00;;;;4998951;28;20222;-83
2023/10/18 02:58:40;;;;;;;7.30;5.73;;;9.10;65.80;7.40;96012.00;;;;4993684;28;20286;-84
2023/10/18 03:01:09;;;;;;;6.50;5.90;;;9.10;65.90;7.40;96009.00;;;;4990785;28;20686;-84
2023/10/18 03:03:39;;;;;;;6.30;5.70;;;9.10;66.10;7.40;96010.00;;;;4998468;28;20220;-83
2023/10/18 03:06:13;;;;;;;6.93;5.77;;;9.10;66.20;7.40;96004.00;;;;4993582;28;20256;-84
2023/10/18 03:08:42;;;;;;;6.30;5.70;;;9.10;66.30;7.40;96002.00;;;;4995588;28;20194;-83
2023/10/18 03:11:11;;;;;;;5.70;5.13;;;9.10;66.40;7.40;95999.00;;;;5007411;28;20194;-83
2023/10/18 03:13:38;;;;;;;5.67;5.17;;;9.10;66.50;7.40;96001.00;;;;5005364;28;20222;-82
2023/10/18 03:16:06;;;;;;;5.57;5.07;;;9.10;66.50;7.40;95996.00;;;;4992695;28;20268;-83
2023/10/18 03:18:36;;;;;;;5.10;4.67;;;9.10;66.50;7.40;95987.00;;;;4993236;28;20202;-83
2023/10/18 03:21:06;;;;;;;5.20;4.80;;;9.10;66.50;7.40;95982.00;;;;4993469;28;20209;-83
2023/10/18 03:23:44;;;;;;;6.20;5.63;;;9.00;66.40;7.40;95971.00;;;;4992724;28;20222;-83
2023/10/18 03:26:12;;;;;;;5.47;4.97;;;9.10;66.50;7.40;95959.00;;;;4984566;28;20210;-84
2023/10/18 03:28:41;;;;;;;7.20;5.60;;;9.10;66.50;7.40;95961.00;;;;4997205;28;20210;-83
2023/10/18 03:31:27;;;;;;;6.33;5.30;;;9.10;66.60;7.40;95960.00;;;;5002928;28;20214;-83
2023/10/18 03:33:59;;;;;;;5.80;5.17;;;9.10;66.70;7.40;95960.00;;;;5000580;28;20302;-84
2023/10/18 03:36:31;;;;;;;5.80;5.30;;;9.10;66.60;7.40;95954.00;;;;5002776;28;20249;-83
2023/10/18 03:39:01;;;;;;;5.57;5.07;;;9.10;66.70;7.40;95963.00;;;;5005690;28;20281;-83
2023/10/18 03:41:33;;;;;;;6.07;5.57;;;9.10;66.70;7.40;95963.00;;;;4998236;28;20199;-84
2023/10/18 03:44:07;;;;;;;6.67;5.93;;;9.10;66.80;7.50;95966.00;;;;4997936;28;20679;-84
2023/10/18 03:46:47;;;;;;;5.60;5.10;;;9.10;66.90;7.50;95962.00;;;;4998365;28;20650;-83
2023/10/18 03:49:22;;;;;;;5.80;5.30;;;9.10;66.80;7.50;95963.00;;;;4993817;28;20294;-83
2023/10/18 03:51:55;;;;;;;5.90;5.40;;;9.10;66.90;7.50;95951.00;;;;4992736;28;20574;-84
2023/10/18 03:54:26;;;;;;;5.63;5.13;;;9.10;67.00;7.50;95960.00;;;;4992780;28;20734;-83
2023/10/18 03:56:53;;;;;;;5.47;4.43;;;9.10;66.90;7.50;95950.00;;;;4999288;28;20648;-84
2023/10/18 03:59:21;;;;;;;5.53;5.03;;;9.10;66.90;7.50;95951.00;;;;5006869;28;20202;-83
2023/10/18 04:02:07;;;;;;;5.50;5.00;;;9.10;66.90;7.50;95956.00;;;;4991249;28;20199;-83
2023/10/18 04:04:36;;;;;;;5.43;4.97;;;9.10;66.90;7.50;95948.00;;;;4997264;28;20203;-83
2023/10/18 04:07:13;;;;;;;5.23;4.73;;;9.10;66.90;7.50;95958.00;;;;4995429;28;20285;-83
2023/10/18 04:09:46;;;;;;;5.37;4.87;;;9.10;67.00;7.50;95948.00;;;;4996477;28;20198;-83
2023/10/18 04:12:17;;;;;;;4.93;4.50;;;9.10;67.00;7.50;95947.00;;;;4992823;28;20250;-83
2023/10/18 04:14:52;;;;;;;5.33;4.93;;;9.10;66.90;7.60;95947.00;;;;5002821;28;20226;-83
2023/10/18 04:17:31;;;;;;;5.73;5.23;;;9.10;66.90;7.60;95939.00;;;;4993302;28;20563;-83
2023/10/18 04:20:00;;;;;;;5.07;4.67;;;9.20;66.90;7.60;95933.00;;;;4995893;28;20205;-84
2023/10/18 04:22:29;;;;;;;5.20;4.73;;;9.10;66.70;7.60;95942.00;;;;4991551;28;20737;-83
2023/10/18 04:24:57;;;;;;;5.03;4.63;;;9.20;66.80;7.60;95939.00;;;;4991293;28;20269;-83
2023/10/18 04:27:26;;;;;;;5.60;5.10;;;9.20;66.80;7.60;95935.00;;;;4995658;28;20238;-83
2023/10/18 04:29:58;;;;;;;4.87;4.37;;;9.20;66.70;7.60;95937.00;;;;4991861;28;20214;-84
2023/10/18 04:32:27;;;;;;;5.87;4.77;;;9.20;66.60;7.60;95932.00;;;;5002097;28;20280;-83
2023/10/18 04:34:56;;;;;;;4.90;4.50;;;9.20;66.60;7.60;95930.00;;;;4991456;28;20762;-83
2023/10/18 04:37:23;;;;;;;5.17;4.70;;;9.20;66.50;7.60;95924.00;;;;4987933;28;20207;-83
2023/10/18 04:39:52;;;;;;;5.00;4.50;;;9.20;66.40;7.60;95922.00;;;;5002358;28;20309;-83
2023/10/18 04:42:24;;;;;;;5.27;4.40;;;9.20;66.30;7.60;95915.00;;;;4996484;28;20233;-83
2023/10/18 04:44:53;;;;;;;4.30;3.97;;;9.20;66.20;7.60;95921.00;;;;5003276;28;20199;-83
2023/10/18 04:47:31;;;;;;;4.40;4.10;;;9.20;66.20;7.50;95917.00;;;;5001356;28;20233;-83
2023/10/18 04:50:02;;;;;;;5.63;4.33;;;9.20;66.20;7.50;95920.00;;;;4985098;28;20198;-84
2023/10/18 04:52:40;;;;;;;5.67;4.50;;;9.10;66.10;7.50;95917.00;;;;4989119;28;20230;-83
2023/10/18 04:55:14;;;;;;;4.50;4.10;;;9.10;66.00;7.40;95919.00;;;;4996979;28;20667;-83
2023/10/18 04:57:42;;;;;;;5.20;4.23;;;9.10;66.00;7.40;95921.00;;;;4991892;28;20286;-83
2023/10/18 05:00:24;;;;;;;5.63;5.00;;;9.10;66.00;7.40;95918.00;;;;4987041;28;20211;-83
2023/10/18 05:02:53;;;;;;;5.13;4.73;;;9.10;66.10;7.40;95913.00;;;;4991418;28;20222;-83
2023/10/18 05:05:20;;;;;;;5.37;4.87;;;9.10;66.10;7.40;95902.00;;;;5000669;28;20245;-82
2023/10/18 05:07:48;;;;;;;5.10;4.60;;;9.10;66.10;7.40;95901.00;;;;4996178;28;20226;-81
2023/10/18 05:10:17;;;;;;;6.37;5.17;;;9.10;66.20;7.40;95895.00;;;;4992905;28;20205;-82
2023/10/18 05:12:48;;;;;;;5.53;4.97;;;9.00;66.20;7.40;95905.00;;;;4991179;28;20230;-81
2023/10/18 05:15:21;;;;;;;5.87;4.80;;;9.00;66.20;7.30;95906.00;;;;4996142;28;20309;-82
2023/10/18 05:17:50;;;;;;;4.83;4.43;;;9.00;66.20;7.40;95911.00;;;;5000839;28;20803;-82
2023/10/18 05:20:25;;;;;;;5.17;4.67;;;9.00;66.10;7.30;95903.00;;;;4999140;28;20198;-81
2023/10/18 05:22:59;;;;;;;5.40;4.70;;;9.00;66.20;7.30;95906.00;;;;4994988;28;20222;-82
2023/10/18 05:25:31;;;;;;;5.23;4.73;;;9.00;66.30;7.30;95906.00;;;;5003447;28;20224;-82
2023/10/18 05:28:08;;;;;;;5.10;4.63;;;9.00;66.30;7.30;95910.00;;;;4996558;28;20819;-82
2023/10/18 05:36:29;;;;;;;4.57;4.17;;;9.00;66.60;7.30;95916.00;;;;4990034;28;20330;-81
2023/10/18 05:39:06;;;;;;;5.23;4.73;;;9.00;66.60;7.40;95902.00;;;;5002596;28;20643;-81
2023/10/18 05:41:45;;;;;;;5.33;4.83;;;9.00;66.60;7.40;95911.00;;;;5003358;28;20207;-81
2023/10/18 05:44:13;;;;;;;4.50;4.10;;;9.00;66.50;7.40;95915.00;;;;4994352;28;20202;-82
2023/10/18 05:46:41;;;;;;;4.83;4.30;;;9.10;66.60;7.40;95910.00;;;;4996925;28;20202;-81
2023/10/18 05:49:15;;;;;;;5.40;4.57;;;9.10;66.60;7.40;95910.00;;;;5004061;28;20194;-81
2023/10/18 05:51:58;;;;;;;5.20;4.70;;;9.10;66.40;7.40;95914.00;;;;5002333;28;20591;-81
2023/10/18 05:54:28;;;;;;;4.73;4.33;;;9.10;66.30;7.40;95907.00;;;;4999126;28;20194;-82
2023/10/18 05:56:58;;;;;;;5.20;4.67;;;9.10;66.30;7.50;95912.00;;;;5002396;28;20222;-81
2023/10/18 05:59:34;;;;;;;5.10;4.30;;;9.10;66.30;7.50;95919.00;;;;4999294;28;20206;-81
2023/10/18 06:02:09;;;;;;;5.57;4.43;;;9.20;66.40;7.50;95916.00;;;;4995589;28;20277;-81
2023/10/18 06:04:42;;;;;;;5.60;5.10;;;9.20;66.40;7.50;95905.00;;;;5007578;28;20220;-81
2023/10/18 06:07:10;;;;;;;4.93;4.53;;;9.20;66.40;7.50;95896.00;;;;5006059;28;20214;-81
2023/10/18 06:09:46;;;;;;;4.63;4.23;;;9.20;66.40;7.50;95894.00;;;;4998722;28;20248;-80
2023/10/18 06:12:21;;;;;;;4.87;4.47;;;9.20;66.40;7.50;95893.00;;;;4984646;28;20308;-81
2023/10/18 06:14:52;;;;;;;5.30;4.80;;;9.30;66.40;7.50;95891.00;;;;4992338;28;20225;-81
2023/10/18 06:17:22;;;;;;;5.47;4.97;;;9.20;66.40;7.50;95883.00;;;;4997029;28;20199;-81
2023/10/18 06:19:50;;;;;;;4.67;4.27;;;9.20;66.40;7.60;95883.00;;;;4998711;28;20281;-81
2023/10/18 06:22:28;;;;;;;5.03;4.63;;;9.20;66.40;7.60;95891.00;;;;5001919;28;20544;-80
2023/10/18 06:24:57;;;;;;;6.80;4.77;;;9.30;66.50;7.60;95900.00;;;;4992749;28;20203;-81
2023/10/18 06:27:25;;;;;;;5.73;5.20;;;9.30;66.50;7.60;95907.00;;;;4998708;28;20423;-81
2023/10/18 06:29:54;;;;;;;4.97;4.50;;;9.30;66.60;7.70;95911.00;;;;4998716;28;20202;-81
2023/10/18 06:32:25;;;;;;;5.37;4.97;;;9.30;66.60;7.70;95908.00;;;;4998857;28;20581;-81
2023/10/18 06:34:57;;;;;;;5.20;4.70;;;9.40;66.70;7.70;95907.00;;;;4992178;28;20218;-81
2023/10/18 06:37:40;;;;;;;4.97;4.57;;;9.30;66.80;7.70;95907.00;;;;4997969;28;20257;-81
2023/10/18 06:40:21;;;;;;;5.20;4.70;;;9.40;66.70;7.80;95904.00;;;;4999523;28;20792;-81
2023/10/18 06:42:50;;;;;;;4.43;4.07;;;9.40;66.70;7.80;95898.00;;;;4999605;28;20230;-80
2023/10/18 06:45:19;;;;;;;5.27;4.67;;;9.40;66.60;7.80;95897.00;;;;5004573;28;20238;-81
2023/10/18 06:47:46;;;;;;;5.97;5.20;;;9.40;66.60;7.80;95885.00;;;;5004519;28;20211;-80
2023/10/18 06:50:19;;;;;;;5.03;4.50;;;9.50;66.70;7.90;95891.00;;;;4993786;28;20693;-81
2023/10/18 06:52:52;;;;;;;5.00;4.50;;;9.50;66.60;7.90;95895.00;;;;4998260;28;20746;-81
2023/10/18 06:55:35;;;;;;;4.83;4.40;;;9.50;66.60;7.90;95892.00;;;;4998066;28;20198;-81
2023/10/18 06:58:12;;;;;;;5.37;4.50;;;9.50;66.60;7.90;95891.00;;;;4991029;28;20226;-81
2023/10/18 07:00:43;;;;;;;4.93;4.43;;;9.50;66.60;7.90;95899.00;;;;5001132;28;20205;-81
2023/10/18 07:03:16;;;;;;;5.47;4.70;;;9.50;66.60;7.90;95898.00;;;;4991360;28;20313;-80
2023/10/18 07:05:49;;;;;;;4.87;4.47;;;9.60;66.70;8.00;95899.00;;;;5002789;28;20201;-80
2023/10/18 07:08:25;;;;;;;4.80;4.40;;;9.60;66.80;8.00;95894.00;;;;4987754;28;20206;-81
2023/10/18 07:10:56;;;;;;;5.83;5.27;;;9.60;66.90;8.00;95897.00;;;;4999100;28;20253;-81
2023/10/18 07:13:34;;;;;;;4.93;4.53;;;9.60;67.00;8.10;95879.00;;;;4998608;28;20222;-81
2023/10/18 07:16:12;;;;;;;4.97;4.57;;;9.70;67.20;8.10;95875.00;;;;5006576;28;20703;-81
2023/10/18 07:18:39;;;;;;;5.00;4.60;;;9.70;67.30;8.10;95872.00;;;;5000492;28;20208;-81
2023/10/18 07:21:07;;;;;;;5.60;5.10;;;9.70;67.30;8.20;95881.00;;;;4999277;28;20275;-81
2023/10/18 07:23:37;;;;;;;5.70;4.63;;;9.70;67.40;8.20;95885.00;;;;5004232;28;20222;-81
2023/10/18 07:26:07;;;;;;;5.33;4.83;;;9.80;68.30;8.30;95890.00;;;;4995583;28;20273;-81
2023/10/18 07:28:36;;;;;;;6.53;5.17;;;9.80;67.60;8.30;95885.00;;;;5001298;28;20225;-81
2023/10/18 07:31:08;;;;;;;5.77;5.27;;;9.90;67.80;8.40;95876.00;;;;4998950;28;20626;-81
2023/10/18 07:33:41;;;;;;;5.27;4.23;;;9.90;68.00;8.50;95887.00;;;;4998711;28;20243;-81
2023/10/18 07:36:11;;;;;;;5.53;5.03;;;10.00;68.20;8.60;95893.00;;;;5000597;28;20229;-81
2023/10/18 07:38:47;;;;;;;5.80;5.30;;;10.00;68.20;8.60;95896.00;;;;4998121;28;20819;-81
2023/10/18 07:41:14;;;;;;;5.63;5.07;;;10.10;68.20;8.70;95882.00;;;;4996997;28;20221;-81
2023/10/18 07:43:44;;;;;;;6.03;5.53;;;10.20;68.20;8.80;95883.00;;;;4995681;28;20249;-81
2023/10/18 07:46:16;;;;;;;5.80;5.30;;;10.20;68.40;8.90;95878.00;;;;4996255;28;20212;-81
2023/10/18 07:48:47;;;;;;;5.50;5.03;;;10.30;68.50;8.90;95873.00;;;;4998873;28;20286;-81
2023/10/18 07:51:24;;;;;;;5.47;4.97;;;10.30;68.50;9.00;95880.00;;;;4994030;28;20451;-81
2023/10/18 07:53:54;;;;;;;5.40;4.90;;;10.40;68.50;9.10;95875.00;;;;4996902;28;20245;-80
2023/10/18 07:56:27;;;;;;;5.87;4.93;;;10.50;68.50;9.20;95871.00;;;;5008662;28;20260;-81
2023/10/18 07:59:27;;;;;;;5.23;4.83;;;10.60;68.60;9.20;95879.00;;;;5006273;28;20210;-81
2023/10/18 08:01:51;;;;;;;5.43;4.90;;;10.70;68.60;9.40;95889.00;;;;4994576;28;20258;-81
2023/10/18 08:04:20;;;;;;;5.43;4.93;;;10.70;68.50;9.40;95877.00;;;;4989899;28;20204;-80
2023/10/18 08:06:48;;;;;;;4.80;4.40;;;10.80;68.50;9.50;95870.00;;;;4988801;28;20286;-80
2023/10/18 08:09:20;;;;;;;4.83;4.30;;;10.90;68.50;9.60;95880.00;;;;5000031;28;20235;-81
2023/10/18 08:11:48;;;;;;;6.03;5.53;;;10.90;68.40;9.60;95877.00;;;;5005113;28;20268;-81
2023/10/18 08:14:24;;;;;;;5.10;4.63;;;11.00;68.30;9.70;95872.00;;;;4999929;28;20198;-81
2023/10/18 08:16:55;;;;;;;5.83;5.23;;;11.10;68.20;9.80;95869.00;;;;4997041;28;20222;-81
2023/10/18 08:19:26;;;;;;;5.10;4.70;;;11.10;68.10;9.80;95863.00;;;;4999380;28;20206;-81
2023/10/18 08:24:41;;;;;;;5.03;4.63;;;11.30;68.10;10.00;95857.00;;;;4993231;28;20209;-81
2023/10/18 08:27:10;;;;;;;5.40;4.23;;;11.30;68.00;10.00;95849.00;;;;4995235;28;20195;-81
2023/10/18 08:29:39;;;;;;;4.97;4.57;;;11.40;68.10;10.10;95856.00;;;;4998685;28;20203;-81
2023/10/18 08:32:14;;;;;;;4.80;4.37;;;11.40;68.00;10.10;95859.00;;;;4999822;28;20562;-81
2023/10/18 08:34:43;;;;;;;5.77;4.77;;;11.50;68.00;10.20;95870.00;;;;4992667;28;20206;-80
2023/10/18 08:37:11;;;;;;;5.43;4.93;;;11.60;68.00;10.30;95869.00;;;;5004506;28;20231;-81
2023/10/18 08:39:40;;;;;;;4.90;4.40;;;11.60;67.90;10.30;95871.00;;;;5006614;28;20256;-81
2023/10/18 08:42:11;;;;;;;5.13;4.67;;;11.70;67.90;10.40;95869.00;;;;4987128;28;20716;-81
2023/10/18 08:44:41;;;;;;;4.80;4.43;;;11.80;67.80;10.50;95867.00;;;;4998968;28;20644;-81
2023/10/18 08:47:13;;;;;;;5.10;4.70;;;11.80;67.70;10.50;95862.00;;;;5001888;28;20207;-81
2023/10/18 08:49:50;;;;;;;5.80;5.30;;;11.90;67.80;10.60;95863.00;;;;4997048;28;20207;-81
2023/10/18 08:52:20;;;;;;;4.50;4.17;;;11.90;67.70;10.70;95857.00;;;;4995872;28;20702;-81
2023/10/18 08:54:49;;;;;;;4.67;4.27;;;12.00;67.80;10.80;95853.00;;;;5007083;28;20585;-81
2023/10/18 08:57:24;;;;;;;4.97;4.57;;;12.00;67.70;10.80;95849.00;;;;5001711;28;20309;-81
2023/10/18 08:59:54;;;;;;;5.50;5.03;;;12.10;67.70;10.90;95854.00;;;;5004490;28;20579;-81
2023/10/18 09:02:21;;;;;;;5.57;4.90;;;12.20;67.80;11.00;95867.00;;;;5001295;28;20226;-81
2023/10/18 09:04:54;;;;;;;4.60;4.27;;;12.30;67.70;11.10;95869.00;;;;5006449;28;20271;-81
2023/10/18 09:07:42;;;;;;;4.97;4.57;;;12.30;67.70;11.20;95873.00;;;;5001449;28;20293;-81
2023/10/18 09:10:33;;;;;;;4.97;4.47;;;12.40;67.50;11.20;95866.00;;;;5001074;28;20230;-81
2023/10/18 09:13:12;;;;;;;4.60;4.30;;;12.50;67.20;11.30;95867.00;;;;5000278;28;20265;-80
2023/10/18 09:15:49;;;;;;;4.57;4.17;;;12.60;67.30;11.40;95861.00;;;;5002120;28;20330;-81
2023/10/18 09:18:17;;;;;;;5.03;4.60;;;12.70;67.50;11.50;95852.00;;;;4992008;28;20222;-80
2023/10/18 09:20:44;;;;;;;5.33;4.83;;;12.80;67.50;11.60;95852.00;;;;4995626;28;20740;-81
2023/10/18 09:23:20;;;;;;;5.73;5.00;;;12.80;67.60;11.70;95846.00;;;;4998590;28;20245;-81
2023/10/18 09:25:50;;;;;;;5.27;4.87;;;12.90;67.50;11.80;95846.00;;;;4996371;28;20241;-80
2023/10/18 09:28:25;;;;;;;4.80;4.40;;;13.00;67.40;11.90;95848.00;;;;4996037;28;20237;-80
2023/10/18 09:31:00;;;;;;;5.13;4.70;;;13.10;67.30;12.10;95845.00;;;;5001053;28;20226;-81
2023/10/18 09:33:31;;;;;;;5.07;4.67;;;13.20;67.30;12.20;95846.00;;;;4994796;28;20249;-81
2023/10/18 09:36:01;;;;;;;4.93;4.53;;;13.30;67.30;12.30;95851.00;;;;5000360;28;20211;-81
2023/10/18 09:38:39;;;;;;;4.93;4.53;;;13.40;67.20;12.40;95854.00;;;;4995189;28;20217;-81
2023/10/18 09:41:07;;;;;;;5.10;4.70;;;13.50;67.20;12.50;95843.00;;;;5003184;28;20289;-81
2023/10/18 09:43:36;;;;;;;5.03;4.63;;;13.70;67.90;12.60;95837.00;;;;5002435;28;20242;-81
2023/10/18 09:46:05;;;;;;;5.67;4.27;;;13.70;67.20;12.80;95842.00;;;;4995586;28;20226;-81
2023/10/18 09:48:37;;;;;;;4.30;4.00;;;13.80;66.90;12.90;95837.00;;;;4999771;28;20199;-81
2023/10/18 09:51:07;;;;;;;5.13;4.63;;;13.90;66.70;13.00;95839.00;;;;5005837;28;20871;-81
2023/10/18 09:53:38;;;;;;;4.77;4.37;;;14.10;67.00;13.10;95832.00;;;;5005589;28;20729;-81
2023/10/18 09:56:06;;;;;;;4.60;4.17;;;14.20;66.70;13.20;95830.00;;;;5000056;28;20249;-81
2023/10/18 09:58:41;;;;;;;4.80;4.40;;;14.30;66.60;13.30;95829.00;;;;4995608;28;20226;-81
2023/10/18 10:01:25;;;;;;;4.37;4.07;;;14.40;66.60;13.40;95824.00;;;;5003920;28;20209;-81
2023/10/18 10:03:56;;;;;;;4.77;4.33;;;14.50;66.60;13.50;95828.00;;;;4995461;28;20226;-81
2023/10/18 10:06:26;;;;;;;4.23;3.93;;;14.60;66.70;13.60;95825.00;;;;4998859;28;20207;-81
2023/10/18 10:09:12;;;;;;;4.80;4.40;;;14.70;66.50;13.70;95823.00;;;;4992701;28;20620;-81
2023/10/18 10:11:43;;;;;;;4.67;4.30;;;14.80;66.40;13.90;95822.00;;;;5005298;28;20208;-80
2023/10/18 10:14:12;;;;;;;4.47;4.13;;;14.90;66.40;14.00;95826.00;;;;4994546;28;20226;-81
2023/10/18 10:16:52;;;;;;;4.50;4.20;;;15.00;66.40;14.10;95823.00;;;;5000643;28;20233;-81
2023/10/18 10:19:28;;;;;;;4.00;3.70;;;15.10;65.90;14.30;95820.00;;;;4999461;28;20206;-81
2023/10/18 10:22:04;;;;;;;4.60;4.30;;;15.20;65.80;14.40;95827.00;;;;4998348;28;20286;-81
2023/10/18 10:24:35;;;;;;;4.40;4.00;;;15.40;65.80;14.50;95824.00;;;;5001057;28;20206;-81
2023/10/18 10:27:28;;;;;;;4.63;4.33;;;15.50;65.30;14.70;95825.00;;;;4997639;28;20211;-81
2023/10/18 10:29:58;;;;;;;4.03;3.73;;;15.60;64.80;14.80;95814.00;;;;4994391;28;20562;-81
2023/10/18 10:32:29;;;;;;;4.23;3.83;;;15.80;66.00;15.00;95820.00;;;;5006680;28;20214;-81
2023/10/18 10:35:15;;;;;;;4.50;4.10;;;15.90;64.60;15.10;95813.00;;;;5001440;28;20289;-81
2023/10/18 10:37:50;;;;;;;3.80;3.60;;;16.00;64.10;15.10;95804.00;;;;4993904;28;20218;-81
2023/10/18 10:40:38;;;;;;;3.97;3.67;;;16.10;63.90;15.20;95799.00;;;;4994846;28;20224;-81
2023/10/18 10:43:12;;;;;;;4.33;3.93;;;16.20;63.70;15.20;95780.00;;;;4992886;28;20264;-81
2023/10/18 10:45:43;;;;;;;4.43;4.07;;;16.30;63.50;15.30;95776.00;;;;4994373;28;20310;-82
2023/10/18 10:48:43;;;;;;;4.17;3.87;;;16.30;63.10;15.30;95771.00;;;;4998842;28;20232;-81
2023/10/18 10:51:13;;;;;;;3.93;3.63;;;16.30;62.50;15.40;95770.00;;;;4989723;28;20202;-81
2023/10/18 10:53:44;;;;;;;4.03;3.67;;;16.40;62.90;15.40;95768.00;;;;4993715;28;20227;-81
2023/10/18 10:56:39;;;;;;;3.93;3.63;;;16.40;62.50;15.50;95763.00;;;;4992250;28;20210;-81
2023/10/18 10:59:15;;;;;;;4.80;4.03;;;16.40;62.50;15.50;95765.00;;;;4996408;28;20210;-81
2023/10/18 11:02:09;;;;;;;3.40;3.20;;;16.50;62.40;15.50;95760.00;;;;4994544;28;20265;-81
2023/10/18 11:04:49;;;;;;;3.53;3.23;;;16.60;61.80;15.50;95751.00;;;;5000263;28;20207;-81
2023/10/18 11:07:22;;;;;;;3.43;3.23;;;16.60;61.70;15.60;95753.00;;;;5004218;28;20210;-81
2023/10/18 11:09:59;;;;;;;4.53;4.03;;;16.60;61.70;15.60;95750.00;;;;4994619;28;20229;-81
2023/10/18 11:12:29;;;;;;;3.60;3.30;;;16.60;61.70;15.60;95731.00;;;;5002872;28;20229;-81
2023/10/18 11:15:00;;;;;;;3.23;3.03;;;16.60;61.90;15.70;95729.00;;;;4999328;28;20195;-81
2023/10/18 11:17:29;;;;;;;3.67;3.37;;;16.70;61.60;15.70;95721.00;;;;4998503;28;20229;-81
2023/10/18 11:20:00;;;;;;;3.50;3.20;;;16.70;61.40;15.70;95720.00;;;;4993275;28;20673;-82
2023/10/18 11:22:29;;;;;;;3.73;3.03;;;16.70;62.20;15.80;95715.00;;;;5004930;28;20228;-82
2023/10/18 11:25:00;;;;;;;3.30;3.00;;;16.80;61.60;15.80;95704.00;;;;4996752;28;20253;-81
2023/10/18 11:27:33;;;;;;;4.00;3.60;;;16.80;61.70;15.90;95703.00;;;;4991577;28;20628;-82
2023/10/18 11:30:15;;;;;;;3.33;3.10;;;16.80;61.70;15.90;95692.00;;;;4991871;28;20593;-82
2023/10/18 11:32:46;;;;;;;3.67;3.37;;;16.90;61.50;16.00;95689.00;;;;4997170;28;20278;-82
2023/10/18 11:35:25;;;;;;;3.67;3.37;;;16.90;61.60;16.10;95675.00;;;;4993505;28;20625;-82